sensor_id;sensor_type;location;lat;lon;timestamp;P1;durP1;ratioP1;P2;durP2;ratioP2
49942;SDS011;36011;53.362;58.948;2023-12-14T00:02:38;26.98;;;13.05;;
49942;SDS011;36011;53.362;58.948;2023-12-14T00:05:39;35.17;;;13.30;;
49942;SDS011;36011;53.362;58.948;2023-12-14T00:08:44;33.65;;;13.07;;
49942;SDS011;36011;53.362;58.948;2023-12-14T00:11:45;34.08;;;13.00;;
49942;SDS011;36011;53.362;58.948;2023-12-14T00:14:49;29.13;;;12.43;;
49942;SDS011;36011;53.362;58.948;2023-12-14T00:17:53;36.45;;;13.27;;
49942;SDS011;36011;53.362;58.948;2023-12-14T00:20:55;34.60;;;15.70;;
49942;SDS011;36011;53.362;58.948;2023-12-14T00:23:59;32.70;;;12.43;;
49942;SDS011;36011;53.362;58.948;2023-12-14T00:27:00;26.08;;;10.30;;
49942;SDS011;36011;53.362;58.948;2023-12-14T00:30:02;30.13;;;13.10;;
49942;SDS011;36011;53.362;58.948;2023-12-14T00:33:05;28.00;;;12.02;;
49942;SDS011;36011;53.362;58.948;2023-12-14T00:36:07;35.97;;;13.73;;
49942;SDS011;36011;53.362;58.948;2023-12-14T00:39:12;42.80;;;16.33;;
49942;SDS011;36011;53.362;58.948;2023-12-14T00:45:17;16.98;;;8.68;;
49942;SDS011;36011;53.362;58.948;2023-12-14T00:48:21;28.17;;;12.18;;
49942;SDS011;36011;53.362;58.948;2023-12-14T00:51:23;28.60;;;13.02;;
49942;SDS011;36011;53.362;58.948;2023-12-14T00:54:26;24.00;;;12.88;;
49942;SDS011;36011;53.362;58.948;2023-12-14T00:57:28;35.70;;;13.32;;
49942;SDS011;36011;53.362;58.948;2023-12-14T01:00:31;33.60;;;12.05;;
49942;SDS011;36011;53.362;58.948;2023-12-14T01:03:32;40.00;;;14.38;;
49942;SDS011;36011;53.362;58.948;2023-12-14T01:06:34;29.77;;;11.65;;
49942;SDS011;36011;53.362;58.948;2023-12-14T01:09:35;32.72;;;12.07;;
49942;SDS011;36011;53.362;58.948;2023-12-14T01:12:42;23.98;;;12.80;;
49942;SDS011;36011;53.362;58.948;2023-12-14T01:15:43;33.88;;;13.13;;
49942;SDS011;36011;53.362;58.948;2023-12-14T01:18:45;33.60;;;14.60;;
49942;SDS011;36011;53.362;58.948;2023-12-14T01:21:48;32.72;;;14.25;;
49942;SDS011;36011;53.362;58.948;2023-12-14T01:24:51;36.92;;;16.08;;
49942;SDS011;36011;53.362;58.948;2023-12-14T01:27:52;34.13;;;12.23;;
49942;SDS011;36011;53.362;58.948;2023-12-14T01:30:54;33.35;;;13.30;;
49942;SDS011;36011;53.362;58.948;2023-12-14T01:33:55;32.45;;;15.32;;
49942;SDS011;36011;53.362;58.948;2023-12-14T01:36:59;33.88;;;16.65;;
49942;SDS011;36011;53.362;58.948;2023-12-14T01:40:00;25.83;;;14.48;;
49942;SDS011;36011;53.362;58.948;2023-12-14T01:43:06;42.75;;;16.75;;
49942;SDS011;36011;53.362;58.948;2023-12-14T01:46:11;27.75;;;13.98;;
49942;SDS011;36011;53.362;58.948;2023-12-14T01:49:16;32.65;;;16.42;;
49942;SDS011;36011;53.362;58.948;2023-12-14T01:52:17;44.28;;;15.32;;
49942;SDS011;36011;53.362;58.948;2023-12-14T01:55:19;33.20;;;15.10;;
49942;SDS011;36011;53.362;58.948;2023-12-14T01:58:21;37.17;;;17.13;;
49942;SDS011;36011;53.362;58.948;2023-12-14T02:04:40;30.40;;;12.63;;
49942;SDS011;36011;53.362;58.948;2023-12-14T02:07:41;38.67;;;16.98;;
49942;SDS011;36011;53.362;58.948;2023-12-14T02:10:43;36.92;;;16.23;;
49942;SDS011;36011;53.362;58.948;2023-12-14T02:13:44;32.38;;;14.23;;
49942;SDS011;36011;53.362;58.948;2023-12-14T02:16:46;36.58;;;16.52;;
49942;SDS011;36011;53.362;58.948;2023-12-14T02:19:48;34.00;;;14.90;;
49942;SDS011;36011;53.362;58.948;2023-12-14T02:25:56;30.60;;;15.63;;
49942;SDS011;36011;53.362;58.948;2023-12-14T02:28:57;38.85;;;17.23;;
49942;SDS011;36011;53.362;58.948;2023-12-14T02:31:58;34.58;;;16.40;;
49942;SDS011;36011;53.362;58.948;2023-12-14T02:35:02;39.50;;;16.63;;
49942;SDS011;36011;53.362;58.948;2023-12-14T02:38:05;39.40;;;17.17;;
49942;SDS011;36011;53.362;58.948;2023-12-14T02:41:07;43.50;;;16.55;;
49942;SDS011;36011;53.362;58.948;2023-12-14T02:44:11;31.90;;;13.73;;
49942;SDS011;36011;53.362;58.948;2023-12-14T02:47:13;30.67;;;12.10;;
49942;SDS011;36011;53.362;58.948;2023-12-14T02:50:15;36.70;;;15.43;;
49942;SDS011;36011;53.362;58.948;2023-12-14T02:53:16;36.78;;;16.58;;
49942;SDS011;36011;53.362;58.948;2023-12-14T02:56:18;41.22;;;15.35;;
49942;SDS011;36011;53.362;58.948;2023-12-14T02:59:19;37.40;;;15.13;;
49942;SDS011;36011;53.362;58.948;2023-12-14T03:02:21;35.42;;;15.52;;
49942;SDS011;36011;53.362;58.948;2023-12-14T03:05:22;42.50;;;16.05;;
49942;SDS011;36011;53.362;58.948;2023-12-14T03:08:26;43.90;;;16.23;;
49942;SDS011;36011;53.362;58.948;2023-12-14T03:11:30;37.20;;;13.60;;
49942;SDS011;36011;53.362;58.948;2023-12-14T03:14:36;45.38;;;14.77;;
49942;SDS011;36011;53.362;58.948;2023-12-14T03:17:38;31.00;;;12.60;;
49942;SDS011;36011;53.362;58.948;2023-12-14T03:20:40;52.53;;;17.40;;
49942;SDS011;36011;53.362;58.948;2023-12-14T03:23:42;35.28;;;17.05;;
49942;SDS011;36011;53.362;58.948;2023-12-14T03:26:44;33.90;;;14.85;;
49942;SDS011;36011;53.362;58.948;2023-12-14T03:29:48;34.55;;;12.45;;
49942;SDS011;36011;53.362;58.948;2023-12-14T03:32:53;47.13;;;16.55;;
49942;SDS011;36011;53.362;58.948;2023-12-14T03:35:54;42.17;;;18.65;;
49942;SDS011;36011;53.362;58.948;2023-12-14T03:38:56;31.80;;;14.02;;
49942;SDS011;36011;53.362;58.948;2023-12-14T03:41:57;33.45;;;14.48;;
49942;SDS011;36011;53.362;58.948;2023-12-14T03:44:59;46.45;;;17.77;;
49942;SDS011;36011;53.362;58.948;2023-12-14T03:48:00;41.95;;;14.30;;
49942;SDS011;36011;53.362;58.948;2023-12-14T03:51:04;54.53;;;18.45;;
49942;SDS011;36011;53.362;58.948;2023-12-14T03:54:06;48.28;;;18.60;;
49942;SDS011;36011;53.362;58.948;2023-12-14T03:57:08;43.42;;;16.33;;
49942;SDS011;36011;53.362;58.948;2023-12-14T04:00:13;42.30;;;16.65;;
49942;SDS011;36011;53.362;58.948;2023-12-14T04:03:17;50.25;;;17.05;;
49942;SDS011;36011;53.362;58.948;2023-12-14T04:06:19;48.47;;;18.23;;
49942;SDS011;36011;53.362;58.948;2023-12-14T04:09:23;40.95;;;16.63;;
49942;SDS011;36011;53.362;58.948;2023-12-14T04:12:24;46.42;;;19.83;;
49942;SDS011;36011;53.362;58.948;2023-12-14T04:15:26;40.22;;;17.23;;
49942;SDS011;36011;53.362;58.948;2023-12-14T04:18:27;57.47;;;18.80;;
49942;SDS011;36011;53.362;58.948;2023-12-14T04:21:29;55.00;;;19.90;;
49942;SDS011;36011;53.362;58.948;2023-12-14T04:24:30;46.50;;;20.85;;
49942;SDS011;36011;53.362;58.948;2023-12-14T04:27:34;55.20;;;19.50;;
49942;SDS011;36011;53.362;58.948;2023-12-14T04:30:35;54.45;;;21.08;;
49942;SDS011;36011;53.362;58.948;2023-12-14T04:33:37;61.42;;;24.38;;
49942;SDS011;36011;53.362;58.948;2023-12-14T04:36:38;40.13;;;20.50;;
49942;SDS011;36011;53.362;58.948;2023-12-14T04:39:40;49.63;;;18.90;;
49942;SDS011;36011;53.362;58.948;2023-12-14T04:42:41;59.00;;;26.02;;
49942;SDS011;36011;53.362;58.948;2023-12-14T04:45:43;64.13;;;29.02;;
49942;SDS011;36011;53.362;58.948;2023-12-14T04:48:47;75.97;;;30.25;;
49942;SDS011;36011;53.362;58.948;2023-12-14T04:51:49;81.93;;;32.00;;
49942;SDS011;36011;53.362;58.948;2023-12-14T04:54:50;73.90;;;26.65;;
49942;SDS011;36011;53.362;58.948;2023-12-14T04:57:54;59.47;;;26.38;;
49942;SDS011;36011;53.362;58.948;2023-12-14T05:00:56;64.93;;;25.90;;
49942;SDS011;36011;53.362;58.948;2023-12-14T05:04:00;74.43;;;30.73;;
49942;SDS011;36011;53.362;58.948;2023-12-14T05:07:01;71.97;;;30.17;;
49942;SDS011;36011;53.362;58.948;2023-12-14T05:10:03;79.65;;;32.63;;
49942;SDS011;36011;53.362;58.948;2023-12-14T05:13:05;95.27;;;35.63;;
49942;SDS011;36011;53.362;58.948;2023-12-14T05:16:12;84.57;;;35.00;;
49942;SDS011;36011;53.362;58.948;2023-12-14T05:19:14;103.82;;;37.75;;
49942;SDS011;36011;53.362;58.948;2023-12-14T05:22:19;90.80;;;38.25;;
49942;SDS011;36011;53.362;58.948;2023-12-14T05:25:20;87.80;;;40.53;;
49942;SDS011;36011;53.362;58.948;2023-12-14T05:28:22;91.80;;;39.72;;
49942;SDS011;36011;53.362;58.948;2023-12-14T05:31:23;92.30;;;38.30;;
49942;SDS011;36011;53.362;58.948;2023-12-14T05:34:27;94.60;;;41.40;;
49942;SDS011;36011;53.362;58.948;2023-12-14T05:37:31;91.55;;;37.45;;
49942;SDS011;36011;53.362;58.948;2023-12-14T05:40:34;105.22;;;42.35;;
49942;SDS011;36011;53.362;58.948;2023-12-14T05:43:40;98.80;;;43.30;;
49942;SDS011;36011;53.362;58.948;2023-12-14T05:46:43;96.30;;;44.10;;
49942;SDS011;36011;53.362;58.948;2023-12-14T05:49:45;100.10;;;45.75;;
49942;SDS011;36011;53.362;58.948;2023-12-14T05:52:51;118.72;;;47.42;;
49942;SDS011;36011;53.362;58.948;2023-12-14T05:55:53;121.30;;;47.50;;
49942;SDS011;36011;53.362;58.948;2023-12-14T05:58:57;120.43;;;44.55;;
49942;SDS011;36011;53.362;58.948;2023-12-14T06:02:00;98.10;;;47.33;;
49942;SDS011;36011;53.362;58.948;2023-12-14T06:05:02;101.57;;;43.83;;
49942;SDS011;36011;53.362;58.948;2023-12-14T06:08:05;108.45;;;41.83;;
49942;SDS011;36011;53.362;58.948;2023-12-14T06:11:08;97.50;;;39.83;;
49942;SDS011;36011;53.362;58.948;2023-12-14T06:14:10;67.88;;;31.40;;
49942;SDS011;36011;53.362;58.948;2023-12-14T06:17:12;62.90;;;27.23;;
49942;SDS011;36011;53.362;58.948;2023-12-14T06:20:13;79.07;;;35.03;;
49942;SDS011;36011;53.362;58.948;2023-12-14T06:23:17;74.65;;;34.17;;
49942;SDS011;36011;53.362;58.948;2023-12-14T06:26:22;91.85;;;36.55;;
49942;SDS011;36011;53.362;58.948;2023-12-14T06:29:23;84.20;;;33.33;;
49942;SDS011;36011;53.362;58.948;2023-12-14T06:32:25;76.90;;;33.00;;
49942;SDS011;36011;53.362;58.948;2023-12-14T06:35:26;80.38;;;33.83;;
49942;SDS011;36011;53.362;58.948;2023-12-14T06:38:30;111.93;;;44.90;;
49942;SDS011;36011;53.362;58.948;2023-12-14T06:41:32;140.23;;;54.60;;
49942;SDS011;36011;53.362;58.948;2023-12-14T06:44:36;117.18;;;48.42;;
49942;SDS011;36011;53.362;58.948;2023-12-14T06:47:37;97.32;;;41.88;;
49942;SDS011;36011;53.362;58.948;2023-12-14T06:50:39;86.82;;;38.55;;
49942;SDS011;36011;53.362;58.948;2023-12-14T06:53:43;100.53;;;38.58;;
49942;SDS011;36011;53.362;58.948;2023-12-14T06:56:50;86.72;;;36.05;;
49942;SDS011;36011;53.362;58.948;2023-12-14T06:59:54;82.47;;;35.13;;
49942;SDS011;36011;53.362;58.948;2023-12-14T07:02:58;90.03;;;37.83;;
49942;SDS011;36011;53.362;58.948;2023-12-14T07:06:03;102.03;;;42.75;;
49942;SDS011;36011;53.362;58.948;2023-12-14T07:09:07;83.38;;;36.45;;
49942;SDS011;36011;53.362;58.948;2023-12-14T07:12:09;80.00;;;32.67;;
49942;SDS011;36011;53.362;58.948;2023-12-14T07:15:15;69.93;;;33.15;;
49942;SDS011;36011;53.362;58.948;2023-12-14T07:18:20;74.32;;;33.03;;
49942;SDS011;36011;53.362;58.948;2023-12-14T07:21:21;68.30;;;30.88;;
49942;SDS011;36011;53.362;58.948;2023-12-14T07:24:24;75.00;;;33.63;;
49942;SDS011;36011;53.362;58.948;2023-12-14T07:27:26;62.67;;;28.47;;
49942;SDS011;36011;53.362;58.948;2023-12-14T07:30:30;68.60;;;30.83;;
49942;SDS011;36011;53.362;58.948;2023-12-14T07:36:40;65.95;;;29.70;;
49942;SDS011;36011;53.362;58.948;2023-12-14T07:39:50;58.08;;;28.73;;
49942;SDS011;36011;53.362;58.948;2023-12-14T07:42:54;77.38;;;37.42;;
49942;SDS011;36011;53.362;58.948;2023-12-14T07:45:58;71.15;;;32.05;;
49942;SDS011;36011;53.362;58.948;2023-12-14T07:49:02;71.18;;;31.25;;
49942;SDS011;36011;53.362;58.948;2023-12-14T07:52:04;65.50;;;32.00;;
49942;SDS011;36011;53.362;58.948;2023-12-14T07:58:09;72.00;;;33.35;;
49942;SDS011;36011;53.362;58.948;2023-12-14T08:01:13;74.63;;;33.35;;
49942;SDS011;36011;53.362;58.948;2023-12-14T08:04:19;66.95;;;33.75;;
49942;SDS011;36011;53.362;58.948;2023-12-14T08:07:21;66.70;;;34.95;;
49942;SDS011;36011;53.362;58.948;2023-12-14T08:10:32;66.82;;;36.20;;
49942;SDS011;36011;53.362;58.948;2023-12-14T08:13:34;71.28;;;36.22;;
49942;SDS011;36011;53.362;58.948;2023-12-14T08:16:40;77.35;;;38.50;;
49942;SDS011;36011;53.362;58.948;2023-12-14T08:19:42;66.13;;;35.83;;
49942;SDS011;36011;53.362;58.948;2023-12-14T08:22:44;82.38;;;41.33;;
49942;SDS011;36011;53.362;58.948;2023-12-14T08:25:45;72.75;;;37.88;;
49942;SDS011;36011;53.362;58.948;2023-12-14T08:31:53;80.38;;;37.35;;
49942;SDS011;36011;53.362;58.948;2023-12-14T08:34:58;83.18;;;39.15;;
49942;SDS011;36011;53.362;58.948;2023-12-14T08:38:01;81.07;;;40.53;;
49942;SDS011;36011;53.362;58.948;2023-12-14T08:41:05;83.60;;;39.60;;
49942;SDS011;36011;53.362;58.948;2023-12-14T08:44:17;85.88;;;39.53;;
49942;SDS011;36011;53.362;58.948;2023-12-14T08:47:21;89.55;;;42.40;;
49942;SDS011;36011;53.362;58.948;2023-12-14T08:50:25;89.50;;;43.17;;
49942;SDS011;36011;53.362;58.948;2023-12-14T08:53:30;90.00;;;42.80;;
49942;SDS011;36011;53.362;58.948;2023-12-14T08:56:39;102.68;;;45.58;;
49942;SDS011;36011;53.362;58.948;2023-12-14T08:59:41;105.72;;;47.28;;
49942;SDS011;36011;53.362;58.948;2023-12-14T09:02:42;108.75;;;51.00;;
49942;SDS011;36011;53.362;58.948;2023-12-14T09:05:46;106.50;;;51.53;;
49942;SDS011;36011;53.362;58.948;2023-12-14T09:08:48;105.60;;;51.63;;
49942;SDS011;36011;53.362;58.948;2023-12-14T09:11:55;126.55;;;59.33;;
49942;SDS011;36011;53.362;58.948;2023-12-14T09:15:00;154.75;;;66.10;;
49942;SDS011;36011;53.362;58.948;2023-12-14T09:18:05;136.82;;;60.42;;
49942;SDS011;36011;53.362;58.948;2023-12-14T09:21:11;146.07;;;65.75;;
49942;SDS011;36011;53.362;58.948;2023-12-14T09:24:16;141.30;;;61.85;;
49942;SDS011;36011;53.362;58.948;2023-12-14T09:27:18;140.02;;;60.33;;
49942;SDS011;36011;53.362;58.948;2023-12-14T09:30:24;134.00;;;61.88;;
49942;SDS011;36011;53.362;58.948;2023-12-14T09:33:26;132.73;;;58.80;;
49942;SDS011;36011;53.362;58.948;2023-12-14T09:36:28;128.32;;;57.33;;
49942;SDS011;36011;53.362;58.948;2023-12-14T09:39:31;127.50;;;57.90;;
49942;SDS011;36011;53.362;58.948;2023-12-14T09:42:37;130.68;;;58.80;;
49942;SDS011;36011;53.362;58.948;2023-12-14T09:45:44;122.30;;;56.15;;
49942;SDS011;36011;53.362;58.948;2023-12-14T09:48:51;125.25;;;58.63;;
49942;SDS011;36011;53.362;58.948;2023-12-14T09:51:58;137.00;;;58.63;;
49942;SDS011;36011;53.362;58.948;2023-12-14T09:55:00;123.55;;;57.10;;
49942;SDS011;36011;53.362;58.948;2023-12-14T09:58:06;139.27;;;58.42;;
49942;SDS011;36011;53.362;58.948;2023-12-14T10:01:23;124.18;;;55.45;;
49942;SDS011;36011;53.362;58.948;2023-12-14T10:04:25;131.57;;;56.00;;
49942;SDS011;36011;53.362;58.948;2023-12-14T10:07:42;125.72;;;57.03;;
49942;SDS011;36011;53.362;58.948;2023-12-14T10:10:46;121.35;;;53.67;;
49942;SDS011;36011;53.362;58.948;2023-12-14T10:13:52;128.68;;;54.17;;
49942;SDS011;36011;53.362;58.948;2023-12-14T10:16:54;133.52;;;58.15;;
49942;SDS011;36011;53.362;58.948;2023-12-14T10:19:59;144.13;;;60.90;;
49942;SDS011;36011;53.362;58.948;2023-12-14T10:23:06;137.85;;;58.88;;
49942;SDS011;36011;53.362;58.948;2023-12-14T10:26:15;146.38;;;60.13;;
49942;SDS011;36011;53.362;58.948;2023-12-14T10:29:21;136.13;;;58.63;;
49942;SDS011;36011;53.362;58.948;2023-12-14T10:32:25;143.23;;;59.65;;
49942;SDS011;36011;53.362;58.948;2023-12-14T10:35:32;135.02;;;58.13;;
49942;SDS011;36011;53.362;58.948;2023-12-14T10:38:36;142.38;;;59.92;;
49942;SDS011;36011;53.362;58.948;2023-12-14T10:41:39;149.50;;;57.40;;
49942;SDS011;36011;53.362;58.948;2023-12-14T10:44:40;136.23;;;59.65;;
49942;SDS011;36011;53.362;58.948;2023-12-14T10:47:46;140.85;;;58.45;;
49942;SDS011;36011;53.362;58.948;2023-12-14T10:50:52;180.85;;;68.72;;
49942;SDS011;36011;53.362;58.948;2023-12-14T10:54:00;170.45;;;72.47;;
49942;SDS011;36011;53.362;58.948;2023-12-14T10:57:01;191.35;;;80.13;;
49942;SDS011;36011;53.362;58.948;2023-12-14T11:00:04;183.18;;;74.43;;
49942;SDS011;36011;53.362;58.948;2023-12-14T11:03:12;180.95;;;78.07;;
49942;SDS011;36011;53.362;58.948;2023-12-14T11:06:29;171.20;;;71.03;;
49942;SDS011;36011;53.362;58.948;2023-12-14T11:09:36;160.05;;;70.18;;
49942;SDS011;36011;53.362;58.948;2023-12-14T11:12:38;166.43;;;66.93;;
49942;SDS011;36011;53.362;58.948;2023-12-14T11:22:23;164.93;;;64.65;;
49942;SDS011;36011;53.362;58.948;2023-12-14T11:25:28;158.90;;;65.38;;
49942;SDS011;36011;53.362;58.948;2023-12-14T11:28:35;157.38;;;64.45;;
49942;SDS011;36011;53.362;58.948;2023-12-14T11:31:39;144.20;;;56.50;;
49942;SDS011;36011;53.362;58.948;2023-12-14T11:34:41;156.13;;;64.07;;
49942;SDS011;36011;53.362;58.948;2023-12-14T11:37:46;144.95;;;60.83;;
49942;SDS011;36011;53.362;58.948;2023-12-14T11:40:49;157.45;;;62.22;;
49942;SDS011;36011;53.362;58.948;2023-12-14T11:43:53;161.00;;;60.72;;
49942;SDS011;36011;53.362;58.948;2023-12-14T11:46:57;137.27;;;60.33;;
49942;SDS011;36011;53.362;58.948;2023-12-14T11:50:04;132.95;;;56.10;;
49942;SDS011;36011;53.362;58.948;2023-12-14T11:53:07;134.50;;;55.78;;
49942;SDS011;36011;53.362;58.948;2023-12-14T11:56:09;138.90;;;53.10;;
49942;SDS011;36011;53.362;58.948;2023-12-14T11:59:17;122.00;;;51.70;;
49942;SDS011;36011;53.362;58.948;2023-12-14T12:02:24;116.15;;;50.97;;
49942;SDS011;36011;53.362;58.948;2023-12-14T12:05:36;119.20;;;50.80;;
49942;SDS011;36011;53.362;58.948;2023-12-14T12:08:42;137.13;;;52.72;;
49942;SDS011;36011;53.362;58.948;2023-12-14T12:11:43;130.98;;;52.80;;
49942;SDS011;36011;53.362;58.948;2023-12-14T12:14:45;126.50;;;51.88;;
49942;SDS011;36011;53.362;58.948;2023-12-14T12:17:47;101.68;;;41.60;;
49942;SDS011;36011;53.362;58.948;2023-12-14T12:20:50;114.88;;;47.78;;
49942;SDS011;36011;53.362;58.948;2023-12-14T12:23:56;136.52;;;50.67;;
49942;SDS011;36011;53.362;58.948;2023-12-14T12:26:59;133.52;;;53.03;;
49942;SDS011;36011;53.362;58.948;2023-12-14T12:30:01;139.65;;;53.00;;
49942;SDS011;36011;53.362;58.948;2023-12-14T12:33:05;123.90;;;53.33;;
49942;SDS011;36011;53.362;58.948;2023-12-14T12:36:07;152.23;;;61.77;;
49942;SDS011;36011;53.362;58.948;2023-12-14T12:39:12;111.15;;;47.65;;
49942;SDS011;36011;53.362;58.948;2023-12-14T12:42:20;136.80;;;52.17;;
49942;SDS011;36011;53.362;58.948;2023-12-14T12:45:22;149.52;;;60.20;;
49942;SDS011;36011;53.362;58.948;2023-12-14T12:48:27;123.00;;;52.47;;
49942;SDS011;36011;53.362;58.948;2023-12-14T12:51:28;123.38;;;53.33;;
49942;SDS011;36011;53.362;58.948;2023-12-14T12:54:33;132.52;;;54.65;;
49942;SDS011;36011;53.362;58.948;2023-12-14T12:57:38;125.97;;;51.15;;
49942;SDS011;36011;53.362;58.948;2023-12-14T13:03:42;90.82;;;40.35;;
49942;SDS011;36011;53.362;58.948;2023-12-14T13:06:44;112.27;;;43.27;;
49942;SDS011;36011;53.362;58.948;2023-12-14T13:09:46;104.73;;;43.20;;
49942;SDS011;36011;53.362;58.948;2023-12-14T13:12:50;100.05;;;40.33;;
49942;SDS011;36011;53.362;58.948;2023-12-14T13:15:52;94.95;;;38.60;;
49942;SDS011;36011;53.362;58.948;2023-12-14T13:18:57;109.40;;;41.22;;
49942;SDS011;36011;53.362;58.948;2023-12-14T13:21:59;107.95;;;40.80;;
49942;SDS011;36011;53.362;58.948;2023-12-14T13:25:08;106.45;;;40.33;;
49942;SDS011;36011;53.362;58.948;2023-12-14T13:28:13;76.97;;;37.33;;
49942;SDS011;36011;53.362;58.948;2023-12-14T13:31:18;84.95;;;37.63;;
49942;SDS011;36011;53.362;58.948;2023-12-14T13:34:22;117.65;;;45.72;;
49942;SDS011;36011;53.362;58.948;2023-12-14T13:37:24;104.25;;;39.08;;
49942;SDS011;36011;53.362;58.948;2023-12-14T13:40:27;93.18;;;35.60;;
49942;SDS011;36011;53.362;58.948;2023-12-14T13:43:31;99.35;;;33.40;;
49942;SDS011;36011;53.362;58.948;2023-12-14T13:46:35;103.45;;;38.42;;
49942;SDS011;36011;53.362;58.948;2023-12-14T13:49:36;94.85;;;37.63;;
49942;SDS011;36011;53.362;58.948;2023-12-14T13:52:38;92.40;;;38.88;;
49942;SDS011;36011;53.362;58.948;2023-12-14T13:55:42;102.45;;;40.33;;
49942;SDS011;36011;53.362;58.948;2023-12-14T13:58:46;110.68;;;39.75;;
49942;SDS011;36011;53.362;58.948;2023-12-14T14:01:51;111.70;;;41.10;;
49942;SDS011;36011;53.362;58.948;2023-12-14T14:04:53;106.13;;;41.67;;
49942;SDS011;36011;53.362;58.948;2023-12-14T14:07:55;112.50;;;42.53;;
49942;SDS011;36011;53.362;58.948;2023-12-14T14:10:57;138.85;;;50.20;;
49942;SDS011;36011;53.362;58.948;2023-12-14T14:14:04;158.00;;;58.53;;
49942;SDS011;36011;53.362;58.948;2023-12-14T14:17:05;143.30;;;62.33;;
49942;SDS011;36011;53.362;58.948;2023-12-14T14:20:08;144.40;;;55.28;;
49942;SDS011;36011;53.362;58.948;2023-12-14T14:23:11;148.35;;;56.78;;
49942;SDS011;36011;53.362;58.948;2023-12-14T14:26:13;125.38;;;51.35;;
49942;SDS011;36011;53.362;58.948;2023-12-14T14:29:15;129.23;;;50.30;;
49942;SDS011;36011;53.362;58.948;2023-12-14T14:32:16;120.40;;;47.65;;
49942;SDS011;36011;53.362;58.948;2023-12-14T14:35:18;111.03;;;45.38;;
49942;SDS011;36011;53.362;58.948;2023-12-14T14:38:22;118.80;;;45.72;;
49942;SDS011;36011;53.362;58.948;2023-12-14T14:41:24;111.65;;;45.70;;
49942;SDS011;36011;53.362;58.948;2023-12-14T14:44:28;113.55;;;46.42;;
49942;SDS011;36011;53.362;58.948;2023-12-14T14:47:30;109.65;;;42.45;;
49942;SDS011;36011;53.362;58.948;2023-12-14T14:50:35;102.50;;;41.75;;
49942;SDS011;36011;53.362;58.948;2023-12-14T14:53:38;101.05;;;42.35;;
49942;SDS011;36011;53.362;58.948;2023-12-14T14:56:48;122.68;;;46.30;;
49942;SDS011;36011;53.362;58.948;2023-12-14T14:59:52;96.68;;;42.22;;
49942;SDS011;36011;53.362;58.948;2023-12-14T15:02:56;135.85;;;45.85;;
49942;SDS011;36011;53.362;58.948;2023-12-14T15:06:00;116.35;;;46.13;;
49942;SDS011;36011;53.362;58.948;2023-12-14T15:09:02;108.55;;;44.17;;
49942;SDS011;36011;53.362;58.948;2023-12-14T15:12:06;122.95;;;50.60;;
49942;SDS011;36011;53.362;58.948;2023-12-14T15:15:08;132.02;;;54.47;;
49942;SDS011;36011;53.362;58.948;2023-12-14T15:18:09;117.88;;;50.15;;
49942;SDS011;36011;53.362;58.948;2023-12-14T15:21:14;135.20;;;49.35;;
49942;SDS011;36011;53.362;58.948;2023-12-14T15:24:15;133.45;;;48.40;;
49942;SDS011;36011;53.362;58.948;2023-12-14T15:27:17;137.30;;;49.22;;
49942;SDS011;36011;53.362;58.948;2023-12-14T15:30:20;114.63;;;44.70;;
49942;SDS011;36011;53.362;58.948;2023-12-14T15:33:25;112.30;;;44.08;;
49942;SDS011;36011;53.362;58.948;2023-12-14T15:36:27;99.82;;;42.85;;
49942;SDS011;36011;53.362;58.948;2023-12-14T15:39:33;103.07;;;41.65;;
49942;SDS011;36011;53.362;58.948;2023-12-14T15:42:35;124.60;;;47.10;;
49942;SDS011;36011;53.362;58.948;2023-12-14T15:45:41;132.98;;;50.47;;
49942;SDS011;36011;53.362;58.948;2023-12-14T15:48:44;111.55;;;44.20;;
49942;SDS011;36011;53.362;58.948;2023-12-14T15:51:46;100.20;;;43.20;;
49942;SDS011;36011;53.362;58.948;2023-12-14T15:54:47;117.10;;;47.13;;
49942;SDS011;36011;53.362;58.948;2023-12-14T15:57:48;125.20;;;46.03;;
49942;SDS011;36011;53.362;58.948;2023-12-14T16:00:53;107.90;;;45.92;;
49942;SDS011;36011;53.362;58.948;2023-12-14T16:03:54;101.90;;;44.72;;
49942;SDS011;36011;53.362;58.948;2023-12-14T16:06:56;109.40;;;45.70;;
49942;SDS011;36011;53.362;58.948;2023-12-14T16:09:57;107.32;;;44.78;;
49942;SDS011;36011;53.362;58.948;2023-12-14T16:13:07;103.28;;;43.67;;
49942;SDS011;36011;53.362;58.948;2023-12-14T16:16:08;98.00;;;42.85;;
49942;SDS011;36011;53.362;58.948;2023-12-14T16:19:12;117.20;;;46.65;;
49942;SDS011;36011;53.362;58.948;2023-12-14T16:22:13;146.68;;;55.40;;
49942;SDS011;36011;53.362;58.948;2023-12-14T16:25:15;117.82;;;47.45;;
49942;SDS011;36011;53.362;58.948;2023-12-14T16:28:18;130.52;;;51.78;;
49942;SDS011;36011;53.362;58.948;2023-12-14T16:31:21;133.75;;;50.78;;
49942;SDS011;36011;53.362;58.948;2023-12-14T16:34:26;143.98;;;51.25;;
49942;SDS011;36011;53.362;58.948;2023-12-14T16:37:29;124.68;;;52.25;;
49942;SDS011;36011;53.362;58.948;2023-12-14T16:40:32;133.18;;;52.35;;
49942;SDS011;36011;53.362;58.948;2023-12-14T16:43:33;144.35;;;49.40;;
49942;SDS011;36011;53.362;58.948;2023-12-14T16:46:36;118.63;;;48.53;;
49942;SDS011;36011;53.362;58.948;2023-12-14T16:49:37;127.65;;;51.33;;
49942;SDS011;36011;53.362;58.948;2023-12-14T16:52:42;119.82;;;48.97;;
49942;SDS011;36011;53.362;58.948;2023-12-14T16:55:44;128.90;;;50.45;;
49942;SDS011;36011;53.362;58.948;2023-12-14T16:58:48;117.47;;;48.28;;
49942;SDS011;36011;53.362;58.948;2023-12-14T17:01:52;113.00;;;44.97;;
49942;SDS011;36011;53.362;58.948;2023-12-14T17:04:53;112.00;;;46.22;;
49942;SDS011;36011;53.362;58.948;2023-12-14T17:07:55;118.93;;;46.25;;
49942;SDS011;36011;53.362;58.948;2023-12-14T17:10:58;110.07;;;43.88;;
49942;SDS011;36011;53.362;58.948;2023-12-14T17:14:02;134.68;;;51.13;;
49942;SDS011;36011;53.362;58.948;2023-12-14T17:17:04;122.60;;;49.08;;
49942;SDS011;36011;53.362;58.948;2023-12-14T17:20:05;118.10;;;48.97;;
49942;SDS011;36011;53.362;58.948;2023-12-14T17:23:07;136.98;;;51.53;;
49942;SDS011;36011;53.362;58.948;2023-12-14T17:26:09;125.90;;;44.83;;
49942;SDS011;36011;53.362;58.948;2023-12-14T17:29:10;105.28;;;42.53;;
49942;SDS011;36011;53.362;58.948;2023-12-14T17:32:13;107.78;;;43.85;;
49942;SDS011;36011;53.362;58.948;2023-12-14T17:35:17;125.57;;;43.88;;
49942;SDS011;36011;53.362;58.948;2023-12-14T17:38:22;120.45;;;47.17;;
49942;SDS011;36011;53.362;58.948;2023-12-14T17:41:24;102.25;;;41.90;;
49942;SDS011;36011;53.362;58.948;2023-12-14T17:44:25;115.05;;;44.30;;
49942;SDS011;36011;53.362;58.948;2023-12-14T17:47:31;116.68;;;48.28;;
49942;SDS011;36011;53.362;58.948;2023-12-14T17:50:33;107.60;;;43.70;;
49942;SDS011;36011;53.362;58.948;2023-12-14T17:53:37;121.85;;;45.88;;
49942;SDS011;36011;53.362;58.948;2023-12-14T17:56:40;123.13;;;45.72;;
49942;SDS011;36011;53.362;58.948;2023-12-14T17:59:41;125.50;;;47.13;;